sensor_id;sensor_type;location;lat;lon;timestamp;temperature;humidity
52107;DHT22;38105;52.968;5.974;2022-11-02T00:03:42;11.80;99.90
52107;DHT22;38105;52.968;5.974;2022-11-02T00:06:08;11.80;99.90
52107;DHT22;38105;52.968;5.974;2022-11-02T00:08:34;11.70;99.90
52107;DHT22;38105;52.968;5.974;2022-11-02T00:10:59;11.80;99.90
52107;DHT22;38105;52.968;5.974;2022-11-02T00:13:25;11.80;99.90
52107;DHT22;38105;52.968;5.974;2022-11-02T00:15:51;11.80;99.90
52107;DHT22;38105;52.968;5.974;2022-11-02T00:18:16;11.50;99.90
52107;DHT22;38105;52.968;5.974;2022-11-02T00:20:42;11.50;99.90
52107;DHT22;38105;52.968;5.974;2022-11-02T00:23:08;11.40;99.90
52107;DHT22;38105;52.968;5.974;2022-11-02T00:25:42;11.40;99.90
52107;DHT22;38105;52.968;5.974;2022-11-02T00:28:08;11.50;99.90
52107;DHT22;38105;52.968;5.974;2022-11-02T00:30:34;11.50;99.90
52107;DHT22;38105;52.968;5.974;2022-11-02T00:32:59;11.40;99.90
52107;DHT22;38105;52.968;5.974;2022-11-02T00:35:25;11.40;99.90
52107;DHT22;38105;52.968;5.974;2022-11-02T00:37:51;11.50;99.90
52107;DHT22;38105;52.968;5.974;2022-11-02T00:40:16;11.40;99.90
52107;DHT22;38105;52.968;5.974;2022-11-02T00:42:42;11.30;99.90
52107;DHT22;38105;52.968;5.974;2022-11-02T00:45:08;11.50;99.90
52107;DHT22;38105;52.968;5.974;2022-11-02T00:47:34;11.30;99.90
52107;DHT22;38105;52.968;5.974;2022-11-02T00:49:59;11.50;99.90
52107;DHT22;38105;52.968;5.974;2022-11-02T00:52:25;11.50;99.90
52107;DHT22;38105;52.968;5.974;2022-11-02T00:54:51;11.40;99.90
52107;DHT22;38105;52.968;5.974;2022-11-02T00:57:16;11.20;99.90
52107;DHT22;38105;52.968;5.974;2022-11-02T00:59:42;11.40;99.90
52107;DHT22;38105;52.968;5.974;2022-11-02T01:02:07;11.20;99.90
52107;DHT22;38105;52.968;5.974;2022-11-02T01:04:34;11.20;99.90
52107;DHT22;38105;52.968;5.974;2022-11-02T01:07:01;11.10;99.90
52107;DHT22;38105;52.968;5.974;2022-11-02T01:09:26;11.10;99.90
52107;DHT22;38105;52.968;5.974;2022-11-02T01:11:52;11.20;99.90
52107;DHT22;38105;52.968;5.974;2022-11-02T01:14:19;11.30;99.90
52107;DHT22;38105;52.968;5.974;2022-11-02T01:16:45;11.30;99.90
52107;DHT22;38105;52.968;5.974;2022-11-02T01:19:10;11.20;99.90
52107;DHT22;38105;52.968;5.974;2022-11-02T01:21:36;11.30;99.90
52107;DHT22;38105;52.968;5.974;2022-11-02T01:24:02;11.40;99.90
52107;DHT22;38105;52.968;5.974;2022-11-02T01:26:27;11.20;99.90
52107;DHT22;38105;52.968;5.974;2022-11-02T01:28:53;11.40;99.90
52107;DHT22;38105;52.968;5.974;2022-11-02T01:31:19;11.40;99.90
52107;DHT22;38105;52.968;5.974;2022-11-02T01:33:45;11.30;99.90
52107;DHT22;38105;52.968;5.974;2022-11-02T01:36:13;11.40;99.90
52107;DHT22;38105;52.968;5.974;2022-11-02T01:38:39;11.20;99.90
52107;DHT22;38105;52.968;5.974;2022-11-02T01:41:05;11.30;99.90
52107;DHT22;38105;52.968;5.974;2022-11-02T01:43:35;11.00;99.90
52107;DHT22;38105;52.968;5.974;2022-11-02T01:46:13;11.10;99.90
52107;DHT22;38105;52.968;5.974;2022-11-02T01:48:50;10.90;99.90
52107;DHT22;38105;52.968;5.974;2022-11-02T01:51:25;11.00;99.90
52107;DHT22;38105;52.968;5.974;2022-11-02T01:53:54;10.90;99.90
52107;DHT22;38105;52.968;5.974;2022-11-02T01:56:22;11.10;99.90
52107;DHT22;38105;52.968;5.974;2022-11-02T01:58:53;11.00;99.90
52107;DHT22;38105;52.968;5.974;2022-11-02T02:01:20;11.10;99.90
52107;DHT22;38105;52.968;5.974;2022-11-02T02:03:46;10.80;99.90
52107;DHT22;38105;52.968;5.974;2022-11-02T02:06:13;11.00;99.90
52107;DHT22;38105;52.968;5.974;2022-11-02T02:08:45;10.80;99.90
52107;DHT22;38105;52.968;5.974;2022-11-02T02:13:59;10.90;99.90
52107;DHT22;38105;52.968;5.974;2022-11-02T02:19:40;10.80;99.90
52107;DHT22;38105;52.968;5.974;2022-11-02T02:31:19;10.80;99.90
52107;DHT22;38105;52.968;5.974;2022-11-02T02:34:14;10.80;99.90
52107;DHT22;38105;52.968;5.974;2022-11-02T02:36:52;10.70;99.90
52107;DHT22;38105;52.968;5.974;2022-11-02T02:39:31;10.80;99.90
52107;DHT22;38105;52.968;5.974;2022-11-02T02:42:06;10.70;99.90
52107;DHT22;38105;52.968;5.974;2022-11-02T02:44:37;10.70;99.90
52107;DHT22;38105;52.968;5.974;2022-11-02T02:47:11;10.60;99.90
52107;DHT22;38105;52.968;5.974;2022-11-02T02:49:41;10.70;99.90
52107;DHT22;38105;52.968;5.974;2022-11-02T02:52:08;10.60;99.90
52107;DHT22;38105;52.968;5.974;2022-11-02T02:54:41;10.50;99.90
52107;DHT22;38105;52.968;5.974;2022-11-02T02:57:13;10.50;99.90
52107;DHT22;38105;52.968;5.974;2022-11-02T02:59:45;10.50;99.90
52107;DHT22;38105;52.968;5.974;2022-11-02T03:02:26;10.50;99.90
52107;DHT22;38105;52.968;5.974;2022-11-02T03:04:52;10.50;99.90
52107;DHT22;38105;52.968;5.974;2022-11-02T03:07:22;10.50;99.90
52107;DHT22;38105;52.968;5.974;2022-11-02T03:20:30;10.40;99.90
52107;DHT22;38105;52.968;5.974;2022-11-02T03:31:37;10.30;99.90
52107;DHT22;38105;52.968;5.974;2022-11-02T03:39:38;10.40;99.90
52107;DHT22;38105;52.968;5.974;2022-11-02T03:42:06;10.40;99.90
52107;DHT22;38105;52.968;5.974;2022-11-02T03:44:37;10.40;99.90
52107;DHT22;38105;52.968;5.974;2022-11-02T03:47:07;10.40;99.90
52107;DHT22;38105;52.968;5.974;2022-11-02T03:49:37;10.40;99.90
52107;DHT22;38105;52.968;5.974;2022-11-02T03:52:08;10.40;99.90
52107;DHT22;38105;52.968;5.974;2022-11-02T03:54:54;10.50;99.90
52107;DHT22;38105;52.968;5.974;2022-11-02T03:57:26;10.40;99.90
52107;DHT22;38105;52.968;5.974;2022-11-02T04:00:23;10.60;99.90
52107;DHT22;38105;52.968;5.974;2022-11-02T04:02:52;10.60;99.90
52107;DHT22;38105;52.968;5.974;2022-11-02T04:05:19;10.70;99.90
52107;DHT22;38105;52.968;5.974;2022-11-02T04:07:49;10.50;99.90
52107;DHT22;38105;52.968;5.974;2022-11-02T04:10:34;10.70;99.90
52107;DHT22;38105;52.968;5.974;2022-11-02T04:12:59;10.60;99.90
52107;DHT22;38105;52.968;5.974;2022-11-02T04:15:44;10.60;99.90
52107;DHT22;38105;52.968;5.974;2022-11-02T04:18:09;10.60;99.90
52107;DHT22;38105;52.968;5.974;2022-11-02T04:20:54;10.60;99.90
52107;DHT22;38105;52.968;5.974;2022-11-02T04:23:19;10.50;99.90
52107;DHT22;38105;52.968;5.974;2022-11-02T04:26:04;10.70;99.90
52107;DHT22;38105;52.968;5.974;2022-11-02T04:28:29;10.40;99.90
52107;DHT22;38105;52.968;5.974;2022-11-02T04:30:58;10.60;99.90
52107;DHT22;38105;52.968;5.974;2022-11-02T04:33:25;10.40;99.90
52107;DHT22;38105;52.968;5.974;2022-11-02T04:36:05;10.40;99.90
52107;DHT22;38105;52.968;5.974;2022-11-02T04:38:31;10.60;99.90
52107;DHT22;38105;52.968;5.974;2022-11-02T04:41:14;10.40;99.90
52107;DHT22;38105;52.968;5.974;2022-11-02T04:43:59;10.60;99.90
52107;DHT22;38105;52.968;5.974;2022-11-02T04:46:27;10.50;99.90
52107;DHT22;38105;52.968;5.974;2022-11-02T04:48:54;10.60;99.90
52107;DHT22;38105;52.968;5.974;2022-11-02T04:51:22;10.60;99.90
52107;DHT22;38105;52.968;5.974;2022-11-02T04:53:48;10.70;99.90
52107;DHT22;38105;52.968;5.974;2022-11-02T04:56:14;10.50;99.90
52107;DHT22;38105;52.968;5.974;2022-11-02T04:58:40;10.40;99.90
52107;DHT22;38105;52.968;5.974;2022-11-02T05:01:08;10.60;99.90
52107;DHT22;38105;52.968;5.974;2022-11-02T05:03:36;10.60;99.90
52107;DHT22;38105;52.968;5.974;2022-11-02T05:06:02;10.40;99.90
52107;DHT22;38105;52.968;5.974;2022-11-02T05:08:28;10.60;99.90
52107;DHT22;38105;52.968;5.974;2022-11-02T05:10:55;10.60;99.90
52107;DHT22;38105;52.968;5.974;2022-11-02T05:13:22;10.40;99.90
52107;DHT22;38105;52.968;5.974;2022-11-02T05:15:47;10.70;99.90
52107;DHT22;38105;52.968;5.974;2022-11-02T05:18:13;10.50;99.90
52107;DHT22;38105;52.968;5.974;2022-11-02T05:20:38;10.50;99.90
52107;DHT22;38105;52.968;5.974;2022-11-02T05:23:04;10.50;99.90
52107;DHT22;38105;52.968;5.974;2022-11-02T05:25:31;10.70;99.90
52107;DHT22;38105;52.968;5.974;2022-11-02T05:27:56;10.60;99.90
52107;DHT22;38105;52.968;5.974;2022-11-02T05:30:22;10.50;99.90
52107;DHT22;38105;52.968;5.974;2022-11-02T05:32:48;10.70;99.90
52107;DHT22;38105;52.968;5.974;2022-11-02T05:35:14;10.70;99.90
52107;DHT22;38105;52.968;5.974;2022-11-02T05:37:40;10.70;99.90
52107;DHT22;38105;52.968;5.974;2022-11-02T05:40:06;10.70;99.90
52107;DHT22;38105;52.968;5.974;2022-11-02T05:42:33;10.70;99.90
52107;DHT22;38105;52.968;5.974;2022-11-02T05:44:58;10.70;99.90
52107;DHT22;38105;52.968;5.974;2022-11-02T05:47:24;10.50;99.90
52107;DHT22;38105;52.968;5.974;2022-11-02T05:49:50;10.60;99.90
52107;DHT22;38105;52.968;5.974;2022-11-02T05:52:15;10.80;99.90
52107;DHT22;38105;52.968;5.974;2022-11-02T05:54:41;10.70;99.90
52107;DHT22;38105;52.968;5.974;2022-11-02T05:57:07;10.70;99.90
52107;DHT22;38105;52.968;5.974;2022-11-02T05:59:32;10.70;99.90
52107;DHT22;38105;52.968;5.974;2022-11-02T06:01:58;10.70;99.90
52107;DHT22;38105;52.968;5.974;2022-11-02T06:04:24;10.60;99.90
52107;DHT22;38105;52.968;5.974;2022-11-02T06:06:49;10.60;99.90
52107;DHT22;38105;52.968;5.974;2022-11-02T06:09:15;10.80;99.90
52107;DHT22;38105;52.968;5.974;2022-11-02T06:11:40;10.80;99.90
52107;DHT22;38105;52.968;5.974;2022-11-02T06:14:06;10.90;99.90
52107;DHT22;38105;52.968;5.974;2022-11-02T06:16:31;10.60;99.90
52107;DHT22;38105;52.968;5.974;2022-11-02T06:18:57;10.70;99.90
52107;DHT22;38105;52.968;5.974;2022-11-02T06:21:23;10.90;99.90
52107;DHT22;38105;52.968;5.974;2022-11-02T06:23:49;10.70;99.90
52107;DHT22;38105;52.968;5.974;2022-11-02T06:26:15;10.90;99.90
52107;DHT22;38105;52.968;5.974;2022-11-02T06:28:41;10.90;99.90
52107;DHT22;38105;52.968;5.974;2022-11-02T06:31:06;10.90;99.90
52107;DHT22;38105;52.968;5.974;2022-11-02T06:33:32;10.70;99.90
52107;DHT22;38105;52.968;5.974;2022-11-02T06:35:58;10.70;99.90
52107;DHT22;38105;52.968;5.974;2022-11-02T06:38:24;10.70;99.90
52107;DHT22;38105;52.968;5.974;2022-11-02T06:40:58;10.90;99.90
52107;DHT22;38105;52.968;5.974;2022-11-02T06:43:24;10.70;99.90
52107;DHT22;38105;52.968;5.974;2022-11-02T06:45:53;10.70;99.90
52107;DHT22;38105;52.968;5.974;2022-11-02T06:48:20;10.80;99.90
52107;DHT22;38105;52.968;5.974;2022-11-02T06:50:45;10.70;99.90
52107;DHT22;38105;52.968;5.974;2022-11-02T06:53:11;10.80;99.90
52107;DHT22;38105;52.968;5.974;2022-11-02T06:55:37;10.80;99.90
52107;DHT22;38105;52.968;5.974;2022-11-02T06:58:02;10.80;99.90
52107;DHT22;38105;52.968;5.974;2022-11-02T07:00:28;10.90;99.90
52107;DHT22;38105;52.968;5.974;2022-11-02T07:02:58;10.90;99.90
52107;DHT22;38105;52.968;5.974;2022-11-02T07:05:24;11.00;99.90
52107;DHT22;38105;52.968;5.974;2022-11-02T07:07:52;10.90;99.90
52107;DHT22;38105;52.968;5.974;2022-11-02T07:10:17;10.80;99.90
52107;DHT22;38105;52.968;5.974;2022-11-02T07:12:43;10.90;99.90
52107;DHT22;38105;52.968;5.974;2022-11-02T07:15:09;10.90;99.90
52107;DHT22;38105;52.968;5.974;2022-11-02T07:17:39;11.00;99.90
52107;DHT22;38105;52.968;5.974;2022-11-02T07:20:05;10.90;99.90
52107;DHT22;38105;52.968;5.974;2022-11-02T07:22:31;10.90;99.90
52107;DHT22;38105;52.968;5.974;2022-11-02T07:24:56;10.90;99.90
52107;DHT22;38105;52.968;5.974;2022-11-02T07:27:22;11.00;99.90
52107;DHT22;38105;52.968;5.974;2022-11-02T07:29:47;10.80;99.90
52107;DHT22;38105;52.968;5.974;2022-11-02T07:32:13;10.80;99.90
52107;DHT22;38105;52.968;5.974;2022-11-02T07:34:39;11.00;99.90
52107;DHT22;38105;52.968;5.974;2022-11-02T07:37:05;11.00;99.90
52107;DHT22;38105;52.968;5.974;2022-11-02T07:39:30;11.00;99.90
52107;DHT22;38105;52.968;5.974;2022-11-02T07:41:56;11.00;99.90
52107;DHT22;38105;52.968;5.974;2022-11-02T07:44:21;11.10;99.90
52107;DHT22;38105;52.968;5.974;2022-11-02T07:46:47;11.10;99.90
52107;DHT22;38105;52.968;5.974;2022-11-02T07:49:13;11.30;99.90
52107;DHT22;38105;52.968;5.974;2022-11-02T07:51:38;11.40;99.90
52107;DHT22;38105;52.968;5.974;2022-11-02T07:54:04;11.70;99.90
52107;DHT22;38105;52.968;5.974;2022-11-02T07:56:30;12.10;99.90
52107;DHT22;38105;52.968;5.974;2022-11-02T07:58:55;12.60;99.90
52107;DHT22;38105;52.968;5.974;2022-11-02T08:01:21;12.60;99.90
52107;DHT22;38105;52.968;5.974;2022-11-02T08:03:47;12.70;99.90
52107;DHT22;38105;52.968;5.974;2022-11-02T08:06:13;13.40;99.90
52107;DHT22;38105;52.968;5.974;2022-11-02T08:08:38;13.80;99.90
52107;DHT22;38105;52.968;5.974;2022-11-02T08:11:06;14.50;99.90
52107;DHT22;38105;52.968;5.974;2022-11-02T08:13:32;15.00;99.90
52107;DHT22;38105;52.968;5.974;2022-11-02T08:15:58;15.30;99.90
52107;DHT22;38105;52.968;5.974;2022-11-02T08:18:25;14.70;99.90
52107;DHT22;38105;52.968;5.974;2022-11-02T08:20:53;14.30;99.90
52107;DHT22;38105;52.968;5.974;2022-11-02T08:23:19;14.00;99.90
52107;DHT22;38105;52.968;5.974;2022-11-02T08:25:46;14.10;99.90
52107;DHT22;38105;52.968;5.974;2022-11-02T08:28:15;15.10;99.90
52107;DHT22;38105;52.968;5.974;2022-11-02T08:30:41;16.30;99.90
52107;DHT22;38105;52.968;5.974;2022-11-02T08:33:11;17.40;99.90
52107;DHT22;38105;52.968;5.974;2022-11-02T08:35:38;18.00;99.90
52107;DHT22;38105;52.968;5.974;2022-11-02T08:38:05;18.20;99.90
52107;DHT22;38105;52.968;5.974;2022-11-02T08:40:31;18.90;99.90
52107;DHT22;38105;52.968;5.974;2022-11-02T08:43:00;19.10;99.90
52107;DHT22;38105;52.968;5.974;2022-11-02T08:45:27;19.50;99.90
52107;DHT22;38105;52.968;5.974;2022-11-02T08:47:53;19.80;99.90
52107;DHT22;38105;52.968;5.974;2022-11-02T08:50:19;19.90;99.90
52107;DHT22;38105;52.968;5.974;2022-11-02T08:52:45;20.00;99.90
52107;DHT22;38105;52.968;5.974;2022-11-02T08:55:10;20.00;99.90
52107;DHT22;38105;52.968;5.974;2022-11-02T08:57:52;20.00;99.90
52107;DHT22;38105;52.968;5.974;2022-11-02T09:00:20;20.00;99.90
52107;DHT22;38105;52.968;5.974;2022-11-02T09:03:08;20.10;99.90
52107;DHT22;38105;52.968;5.974;2022-11-02T09:05:36;19.80;99.90
52107;DHT22;38105;52.968;5.974;2022-11-02T09:08:04;19.40;99.90
52107;DHT22;38105;52.968;5.974;2022-11-02T09:10:32;19.50;99.90
52107;DHT22;38105;52.968;5.974;2022-11-02T09:12:59;19.00;99.90
52107;DHT22;38105;52.968;5.974;2022-11-02T09:15:26;18.60;99.90
52107;DHT22;38105;52.968;5.974;2022-11-02T09:17:51;18.20;99.90
52107;DHT22;38105;52.968;5.974;2022-11-02T09:20:19;17.70;99.90
52107;DHT22;38105;52.968;5.974;2022-11-02T09:22:45;17.00;99.90
52107;DHT22;38105;52.968;5.974;2022-11-02T09:25:12;16.70;99.90
52107;DHT22;38105;52.968;5.974;2022-11-02T09:27:39;16.30;99.90
52107;DHT22;38105;52.968;5.974;2022-11-02T09:30:06;16.10;99.90
52107;DHT22;38105;52.968;5.974;2022-11-02T09:32:31;16.30;99.90
52107;DHT22;38105;52.968;5.974;2022-11-02T09:35:09;16.20;99.90
52107;DHT22;38105;52.968;5.974;2022-11-02T09:37:35;16.30;99.90
52107;DHT22;38105;52.968;5.974;2022-11-02T09:40:02;16.20;99.90
52107;DHT22;38105;52.968;5.974;2022-11-02T09:45:12;16.00;99.90
52107;DHT22;38105;52.968;5.974;2022-11-02T09:48:09;16.00;99.90
52107;DHT22;38105;52.968;5.974;2022-11-02T09:50:47;15.90;99.90
52107;DHT22;38105;52.968;5.974;2022-11-02T09:53:19;15.80;99.90
52107;DHT22;38105;52.968;5.974;2022-11-02T09:55:55;15.70;99.90
52107;DHT22;38105;52.968;5.974;2022-11-02T09:58:29;15.70;99.90
52107;DHT22;38105;52.968;5.974;2022-11-02T10:00:58;15.80;99.90
52107;DHT22;38105;52.968;5.974;2022-11-02T10:06:01;15.50;99.90
52107;DHT22;38105;52.968;5.974;2022-11-02T10:08:59;15.40;99.90
52107;DHT22;38105;52.968;5.974;2022-11-02T10:12:01;15.20;99.90
52107;DHT22;38105;52.968;5.974;2022-11-02T10:14:33;14.90;99.90
52107;DHT22;38105;52.968;5.974;2022-11-02T10:19:26;14.60;99.90
52107;DHT22;38105;52.968;5.974;2022-11-02T10:21:56;14.60;99.90
52107;DHT22;38105;52.968;5.974;2022-11-02T10:24:38;14.40;99.90
52107;DHT22;38105;52.968;5.974;2022-11-02T10:27:17;14.40;99.90
52107;DHT22;38105;52.968;5.974;2022-11-02T10:30:10;14.40;99.90
52107;DHT22;38105;52.968;5.974;2022-11-02T10:32:39;14.40;99.90
52107;DHT22;38105;52.968;5.974;2022-11-02T10:35:15;14.30;99.90
52107;DHT22;38105;52.968;5.974;2022-11-02T10:41:02;14.20;99.90
52107;DHT22;38105;52.968;5.974;2022-11-02T10:43:55;14.20;99.90
52107;DHT22;38105;52.968;5.974;2022-11-02T10:52:41;14.70;99.90
52107;DHT22;38105;52.968;5.974;2022-11-02T10:55:35;14.90;99.90
52107;DHT22;38105;52.968;5.974;2022-11-02T10:57:59;15.00;99.90
52107;DHT22;38105;52.968;5.974;2022-11-02T11:03:08;15.10;99.90
52107;DHT22;38105;52.968;5.974;2022-11-02T11:05:55;15.00;99.90
52107;DHT22;38105;52.968;5.974;2022-11-02T11:08:40;14.90;99.90
52107;DHT22;38105;52.968;5.974;2022-11-02T11:13:40;14.90;99.90
52107;DHT22;38105;52.968;5.974;2022-11-02T11:16:07;14.80;99.90
52107;DHT22;38105;52.968;5.974;2022-11-02T11:18:33;14.90;99.90
52107;DHT22;38105;52.968;5.974;2022-11-02T11:20:59;15.00;99.90
52107;DHT22;38105;52.968;5.974;2022-11-02T11:23:26;15.10;99.90
52107;DHT22;38105;52.968;5.974;2022-11-02T11:26:00;15.10;99.90
52107;DHT22;38105;52.968;5.974;2022-11-02T11:28:53;15.20;99.90
52107;DHT22;38105;52.968;5.974;2022-11-02T11:31:19;15.20;99.90
52107;DHT22;38105;52.968;5.974;2022-11-02T11:33:56;15.20;99.90
52107;DHT22;38105;52.968;5.974;2022-11-02T11:38:50;15.40;99.90
52107;DHT22;38105;52.968;5.974;2022-11-02T11:41:16;15.60;99.90
52107;DHT22;38105;52.968;5.974;2022-11-02T11:43:44;15.70;99.90
52107;DHT22;38105;52.968;5.974;2022-11-02T11:46:11;15.90;99.90
52107;DHT22;38105;52.968;5.974;2022-11-02T11:48:49;15.90;99.90
52107;DHT22;38105;52.968;5.974;2022-11-02T11:51:34;15.90;99.90
52107;DHT22;38105;52.968;5.974;2022-11-02T11:54:13;15.80;99.90
52107;DHT22;38105;52.968;5.974;2022-11-02T11:56:41;15.70;99.90
52107;DHT22;38105;52.968;5.974;2022-11-02T12:02:30;15.30;99.90
52107;DHT22;38105;52.968;5.974;2022-11-02T12:05:12;15.30;99.90
52107;DHT22;38105;52.968;5.974;2022-11-02T12:08:09;15.30;99.90
52107;DHT22;38105;52.968;5.974;2022-11-02T12:11:01;15.40;99.90
52107;DHT22;38105;52.968;5.974;2022-11-02T12:24:47;15.30;99.90
52107;DHT22;38105;52.968;5.974;2022-11-02T12:30:17;15.30;99.90
52107;DHT22;38105;52.968;5.974;2022-11-02T12:33:04;15.20;99.90
52107;DHT22;38105;52.968;5.974;2022-11-02T12:36:02;15.30;99.90
52107;DHT22;38105;52.968;5.974;2022-11-02T12:41:33;15.20;99.90
52107;DHT22;38105;52.968;5.974;2022-11-02T12:46:50;15.20;99.90
52107;DHT22;38105;52.968;5.974;2022-11-02T12:54:50;15.30;99.90
52107;DHT22;38105;52.968;5.974;2022-11-02T12:57:20;15.30;99.90
52107;DHT22;38105;52.968;5.974;2022-11-02T12:59:51;15.20;99.90
52107;DHT22;38105;52.968;5.974;2022-11-02T13:02:46;15.30;99.90
52107;DHT22;38105;52.968;5.974;2022-11-02T13:05:24;15.30;99.90
52107;DHT22;38105;52.968;5.974;2022-11-02T13:08:18;15.30;99.90
52107;DHT22;38105;52.968;5.974;2022-11-02T13:10:52;15.20;99.90
52107;DHT22;38105;52.968;5.974;2022-11-02T13:13:29;15.20;99.90
52107;DHT22;38105;52.968;5.974;2022-11-02T13:15:58;15.20;99.90
52107;DHT22;38105;52.968;5.974;2022-11-02T13:18:31;15.10;99.90
52107;DHT22;38105;52.968;5.974;2022-11-02T13:21:01;15.10;99.90
52107;DHT22;38105;52.968;5.974;2022-11-02T13:23:58;15.10;99.90
52107;DHT22;38105;52.968;5.974;2022-11-02T13:26:31;15.10;99.90
52107;DHT22;38105;52.968;5.974;2022-11-02T13:29:21;15.00;99.90
52107;DHT22;38105;52.968;5.974;2022-11-02T13:32:02;15.00;99.90
52107;DHT22;38105;52.968;5.974;2022-11-02T13:34:34;15.00;99.90
52107;DHT22;38105;52.968;5.974;2022-11-02T13:37:07;14.90;99.90
52107;DHT22;38105;52.968;5.974;2022-11-02T13:39:37;14.90;99.90
52107;DHT22;38105;52.968;5.974;2022-11-02T13:45:24;14.90;99.90
52107;DHT22;38105;52.968;5.974;2022-11-02T13:48:14;14.80;99.90
52107;DHT22;38105;52.968;5.974;2022-11-02T13:50:52;14.80;99.90
52107;DHT22;38105;52.968;5.974;2022-11-02T13:53:25;14.70;99.90
52107;DHT22;38105;52.968;5.974;2022-11-02T13:56:07;14.70;99.90
52107;DHT22;38105;52.968;5.974;2022-11-02T13:58:40;14.70;99.90
52107;DHT22;38105;52.968;5.974;2022-11-02T14:01:10;14.70;99.90
52107;DHT22;38105;52.968;5.974;2022-11-02T14:03:45;14.60;99.90
52107;DHT22;38105;52.968;5.974;2022-11-02T14:06:14;14.50;99.90
52107;DHT22;38105;52.968;5.974;2022-11-02T14:08:45;14.50;99.90
52107;DHT22;38105;52.968;5.974;2022-11-02T14:11:31;14.50;99.90
52107;DHT22;38105;52.968;5.974;2022-11-02T14:37:46;13.90;99.90
52107;DHT22;38105;52.968;5.974;2022-11-02T14:48:45;13.80;99.90
52107;DHT22;38105;52.968;5.974;2022-11-02T14:51:22;13.90;99.90
52107;DHT22;38105;52.968;5.974;2022-11-02T14:54:15;13.80;99.90
52107;DHT22;38105;52.968;5.974;2022-11-02T14:56:56;13.80;99.90
52107;DHT22;38105;52.968;5.974;2022-11-02T14:59:38;13.70;99.90
52107;DHT22;38105;52.968;5.974;2022-11-02T15:02:33;13.60;99.90
52107;DHT22;38105;52.968;5.974;2022-11-02T15:05:02;13.60;99.90
52107;DHT22;38105;52.968;5.974;2022-11-02T15:07:46;13.50;99.90
52107;DHT22;38105;52.968;5.974;2022-11-02T15:12:46;13.40;99.90
52107;DHT22;38105;52.968;5.974;2022-11-02T15:15:32;13.40;99.90
52107;DHT22;38105;52.968;5.974;2022-11-02T15:20:43;13.20;99.90
52107;DHT22;38105;52.968;5.974;2022-11-02T15:23:23;13.20;99.90
52107;DHT22;38105;52.968;5.974;2022-11-02T15:25:51;13.10;99.90
52107;DHT22;38105;52.968;5.974;2022-11-02T15:28:25;13.00;99.90
52107;DHT22;38105;52.968;5.974;2022-11-02T15:30:55;12.90;99.90
52107;DHT22;38105;52.968;5.974;2022-11-02T15:33:30;12.90;99.90
52107;DHT22;38105;52.968;5.974;2022-11-02T15:35:59;12.80;99.90
52107;DHT22;38105;52.968;5.974;2022-11-02T15:38:27;12.70;99.90
52107;DHT22;38105;52.968;5.974;2022-11-02T15:41:03;12.70;99.90
52107;DHT22;38105;52.968;5.974;2022-11-02T15:49:09;12.50;99.90
52107;DHT22;38105;52.968;5.974;2022-11-02T15:52:03;12.50;99.90
52107;DHT22;38105;52.968;5.974;2022-11-02T16:02:21;12.20;99.90
52107;DHT22;38105;52.968;5.974;2022-11-02T16:04:51;12.10;99.90
52107;DHT22;38105;52.968;5.974;2022-11-02T16:07:17;12.00;99.90
52107;DHT22;38105;52.968;5.974;2022-11-02T16:09:45;12.00;99.90
52107;DHT22;38105;52.968;5.974;2022-11-02T16:12:11;11.90;99.90
52107;DHT22;38105;52.968;5.974;2022-11-02T16:14:38;11.80;99.90
52107;DHT22;38105;52.968;5.974;2022-11-02T16:17:04;11.80;99.90
52107;DHT22;38105;52.968;5.974;2022-11-02T16:19:30;11.80;99.90
52107;DHT22;38105;52.968;5.974;2022-11-02T16:21:56;11.70;99.90
52107;DHT22;38105;52.968;5.974;2022-11-02T16:24:22;11.70;99.90
52107;DHT22;38105;52.968;5.974;2022-11-02T16:26:48;11.60;99.90
52107;DHT22;38105;52.968;5.974;2022-11-02T16:29:26;11.60;99.90
52107;DHT22;38105;52.968;5.974;2022-11-02T16:31:53;11.50;99.90
52107;DHT22;38105;52.968;5.974;2022-11-02T16:34:28;11.50;99.90
52107;DHT22;38105;52.968;5.974;2022-11-02T16:36:55;11.50;99.90
52107;DHT22;38105;52.968;5.974;2022-11-02T16:39:26;11.60;99.90
52107;DHT22;38105;52.968;5.974;2022-11-02T16:41:55;11.60;99.90
52107;DHT22;38105;52.968;5.974;2022-11-02T16:44:29;11.50;99.90
52107;DHT22;38105;52.968;5.974;2022-11-02T16:49:32;11.50;99.90
52107;DHT22;38105;52.968;5.974;2022-11-02T16:52:13;11.50;99.90
52107;DHT22;38105;52.968;5.974;2022-11-02T16:54:41;11.50;99.90
52107;DHT22;38105;52.968;5.974;2022-11-02T16:59:48;11.40;99.90
52107;DHT22;38105;52.968;5.974;2022-11-02T17:02:14;11.40;99.90
52107;DHT22;38105;52.968;5.974;2022-11-02T17:04:41;11.30;99.90
52107;DHT22;38105;52.968;5.974;2022-11-02T17:07:12;11.30;99.90
52107;DHT22;38105;52.968;5.974;2022-11-02T17:09:39;11.30;99.90
52107;DHT22;38105;52.968;5.974;2022-11-02T17:12:14;11.30;99.90
52107;DHT22;38105;52.968;5.974;2022-11-02T17:14:42;11.20;99.90
52107;DHT22;38105;52.968;5.974;2022-11-02T17:17:36;11.30;99.90
52107;DHT22;38105;52.968;5.974;2022-11-02T17:22:54;11.20;99.90
52107;DHT22;38105;52.968;5.974;2022-11-02T17:27:49;11.20;99.90
52107;DHT22;38105;52.968;5.974;2022-11-02T17:33:07;11.20;99.90
52107;DHT22;38105;52.968;5.974;2022-11-02T17:35:33;11.20;99.90
52107;DHT22;38105;52.968;5.974;2022-11-02T17:38:00;11.20;99.90
52107;DHT22;38105;52.968;5.974;2022-11-02T17:40:26;11.20;99.90
52107;DHT22;38105;52.968;5.974;2022-11-02T17:42:52;11.20;99.90
52107;DHT22;38105;52.968;5.974;2022-11-02T17:45:27;11.10;99.90
52107;DHT22;38105;52.968;5.974;2022-11-02T17:47:54;11.10;99.90
52107;DHT22;38105;52.968;5.974;2022-11-02T17:50:21;11.10;99.90
52107;DHT22;38105;52.968;5.974;2022-11-02T17:52:47;11.10;99.90
52107;DHT22;38105;52.968;5.974;2022-11-02T17:55:17;11.10;99.90
52107;DHT22;38105;52.968;5.974;2022-11-02T17:57:43;11.10;99.90
52107;DHT22;38105;52.968;5.974;2022-11-02T18:00:09;11.10;99.90
52107;DHT22;38105;52.968;5.974;2022-11-02T18:02:36;11.00;99.90
52107;DHT22;38105;52.968;5.974;2022-11-02T18:05:02;11.10;99.90
52107;DHT22;38105;52.968;5.974;2022-11-02T18:07:27;11.00;99.90
52107;DHT22;38105;52.968;5.974;2022-11-02T18:09:53;11.00;99.90
52107;DHT22;38105;52.968;5.974;2022-11-02T18:12:19;11.00;99.90
52107;DHT22;38105;52.968;5.974;2022-11-02T18:14:44;11.00;99.90
52107;DHT22;38105;52.968;5.974;2022-11-02T18:17:10;11.00;99.90
52107;DHT22;38105;52.968;5.974;2022-11-02T18:19:36;10.90;99.90
52107;DHT22;38105;52.968;5.974;2022-11-02T18:22:01;10.90;99.90
52107;DHT22;38105;52.968;5.974;2022-11-02T18:24:27;10.90;99.90
52107;DHT22;38105;52.968;5.974;2022-11-02T18:26:53;10.90;99.90
52107;DHT22;38105;52.968;5.974;2022-11-02T18:29:21;10.90;99.90
52107;DHT22;38105;52.968;5.974;2022-11-02T18:31:47;10.90;99.90
52107;DHT22;38105;52.968;5.974;2022-11-02T18:34:12;10.90;99.90